Terminal Aerodrome Forecast
Issued by NWS

Home | Current Version | Previous Version | Text Only | Print | Product List | Glossary On
Versions: 1 2 3 4 5 6 7 8 9 10 11 12 13 14 15 16 17 18 19 20
778
FTUS44 KTSA 301740
TAFXNA
TAF
KXNA 301740Z 3018/0118 20016G25KT P6SM BKN025 BKN035
     FM302100 22018G29KT P6SM SCT025 BKN035
     FM010300 23015G25KT P6SM BKN025 BKN035
     FM010600 24014G23KT P6SM BKN015 BKN025
     FM011500 28017G26KT P6SM BKN035=

USA.gov is the U.S. government's official web portal to all federal, state and local government web resources and services.